sensor_id;sensor_type;location;lat;lon;timestamp;P1;durP1;ratioP1;P2;durP2;ratioP2
24635;SDS011;12772;49.794;10.024;2022-08-20T00:02:48;5.65;;;5.25;;
24635;SDS011;12772;49.794;10.024;2022-08-20T00:06:52;5.57;;;5.18;;
24635;SDS011;12772;49.794;10.024;2022-08-20T00:10:54;6.32;;;5.70;;
24635;SDS011;12772;49.794;10.024;2022-08-20T00:14:57;5.40;;;4.90;;
24635;SDS011;12772;49.794;10.024;2022-08-20T00:18:59;6.53;;;5.72;;
24635;SDS011;12772;49.794;10.024;2022-08-20T00:23:02;5.70;;;5.28;;
24635;SDS011;12772;49.794;10.024;2022-08-20T00:27:05;5.78;;;5.28;;
24635;SDS011;12772;49.794;10.024;2022-08-20T00:31:08;5.25;;;4.85;;
24635;SDS011;12772;49.794;10.024;2022-08-20T00:35:14;5.88;;;5.20;;
24635;SDS011;12772;49.794;10.024;2022-08-20T00:39:17;5.28;;;4.80;;
24635;SDS011;12772;49.794;10.024;2022-08-20T00:47:40;6.07;;;5.55;;
24635;SDS011;12772;49.794;10.024;2022-08-20T00:51:44;6.15;;;5.65;;
24635;SDS011;12772;49.794;10.024;2022-08-20T00:55:48;5.47;;;5.07;;
24635;SDS011;12772;49.794;10.024;2022-08-20T00:59:51;5.60;;;5.10;;
24635;SDS011;12772;49.794;10.024;2022-08-20T01:03:53;5.88;;;5.10;;
24635;SDS011;12772;49.794;10.024;2022-08-20T01:07:56;6.25;;;5.65;;
24635;SDS011;12772;49.794;10.024;2022-08-20T01:11:58;5.82;;;5.38;;
24635;SDS011;12772;49.794;10.024;2022-08-20T01:16:01;6.53;;;5.93;;
24635;SDS011;12772;49.794;10.024;2022-08-20T01:24:43;6.47;;;5.95;;
24635;SDS011;12772;49.794;10.024;2022-08-20T01:28:48;5.72;;;5.07;;
24635;SDS011;12772;49.794;10.024;2022-08-20T01:32:53;5.60;;;5.10;;
24635;SDS011;12772;49.794;10.024;2022-08-20T01:36:56;5.88;;;5.40;;
24635;SDS011;12772;49.794;10.024;2022-08-20T01:45:22;5.45;;;5.05;;
24635;SDS011;12772;49.794;10.024;2022-08-20T01:49:28;5.93;;;5.40;;
24635;SDS011;12772;49.794;10.024;2022-08-20T01:53:35;5.18;;;4.80;;
24635;SDS011;12772;49.794;10.024;2022-08-20T01:57:39;5.15;;;4.72;;
24635;SDS011;12772;49.794;10.024;2022-08-20T02:01:42;5.57;;;4.82;;
24635;SDS011;12772;49.794;10.024;2022-08-20T02:05:44;4.82;;;4.53;;
24635;SDS011;12772;49.794;10.024;2022-08-20T02:09:46;5.47;;;5.07;;
24635;SDS011;12772;49.794;10.024;2022-08-20T02:13:51;5.22;;;4.72;;
24635;SDS011;12772;49.794;10.024;2022-08-20T02:17:53;4.65;;;4.25;;
24635;SDS011;12772;49.794;10.024;2022-08-20T02:21:57;4.97;;;4.53;;
24635;SDS011;12772;49.794;10.024;2022-08-20T02:26:02;5.45;;;4.95;;
24635;SDS011;12772;49.794;10.024;2022-08-20T02:30:08;5.13;;;4.72;;
24635;SDS011;12772;49.794;10.024;2022-08-20T02:34:13;5.28;;;4.88;;
24635;SDS011;12772;49.794;10.024;2022-08-20T02:38:15;5.57;;;5.13;;
24635;SDS011;12772;49.794;10.024;2022-08-20T02:42:17;5.50;;;5.00;;
24635;SDS011;12772;49.794;10.024;2022-08-20T02:46:20;5.32;;;4.97;;
24635;SDS011;12772;49.794;10.024;2022-08-20T02:50:22;5.80;;;5.30;;
24635;SDS011;12772;49.794;10.024;2022-08-20T02:54:25;8.75;;;5.40;;
24635;SDS011;12772;49.794;10.024;2022-08-20T02:58:28;5.25;;;4.95;;
24635;SDS011;12772;49.794;10.024;2022-08-20T03:02:30;5.93;;;5.43;;
24635;SDS011;12772;49.794;10.024;2022-08-20T03:06:32;5.65;;;5.25;;
24635;SDS011;12772;49.794;10.024;2022-08-20T03:10:35;6.07;;;5.57;;
24635;SDS011;12772;49.794;10.024;2022-08-20T03:14:39;5.53;;;4.95;;
24635;SDS011;12772;49.794;10.024;2022-08-20T03:18:42;6.00;;;5.40;;
24635;SDS011;12772;49.794;10.024;2022-08-20T03:22:46;5.78;;;4.95;;
24635;SDS011;12772;49.794;10.024;2022-08-20T03:26:49;6.65;;;5.55;;
24635;SDS011;12772;49.794;10.024;2022-08-20T03:30:51;7.15;;;5.47;;
24635;SDS011;12772;49.794;10.024;2022-08-20T03:34:54;5.55;;;5.07;;
24635;SDS011;12772;49.794;10.024;2022-08-20T03:38:56;6.10;;;5.50;;
24635;SDS011;12772;49.794;10.024;2022-08-20T03:43:00;5.50;;;5.03;;
24635;SDS011;12772;49.794;10.024;2022-08-20T03:47:03;5.28;;;4.88;;
24635;SDS011;12772;49.794;10.024;2022-08-20T03:51:07;5.60;;;4.93;;
24635;SDS011;12772;49.794;10.024;2022-08-20T03:55:09;6.38;;;5.70;;
24635;SDS011;12772;49.794;10.024;2022-08-20T03:59:11;5.75;;;5.25;;
24635;SDS011;12772;49.794;10.024;2022-08-20T04:03:13;5.57;;;5.05;;
24635;SDS011;12772;49.794;10.024;2022-08-20T04:07:18;5.38;;;4.97;;
24635;SDS011;12772;49.794;10.024;2022-08-20T04:11:25;6.57;;;5.25;;
24635;SDS011;12772;49.794;10.024;2022-08-20T04:15:27;5.70;;;5.22;;
24635;SDS011;12772;49.794;10.024;2022-08-20T04:19:29;5.60;;;5.20;;
24635;SDS011;12772;49.794;10.024;2022-08-20T04:23:31;5.60;;;5.07;;
24635;SDS011;12772;49.794;10.024;2022-08-20T04:27:35;6.10;;;5.50;;
24635;SDS011;12772;49.794;10.024;2022-08-20T04:31:38;5.68;;;5.28;;
24635;SDS011;12772;49.794;10.024;2022-08-20T04:35:40;5.00;;;4.70;;
24635;SDS011;12772;49.794;10.024;2022-08-20T04:39:42;6.15;;;5.55;;
24635;SDS011;12772;49.794;10.024;2022-08-20T04:43:44;5.50;;;5.00;;
24635;SDS011;12772;49.794;10.024;2022-08-20T04:47:46;5.60;;;5.20;;
24635;SDS011;12772;49.794;10.024;2022-08-20T04:51:49;5.35;;;4.95;;
24635;SDS011;12772;49.794;10.024;2022-08-20T04:55:53;6.18;;;5.57;;
24635;SDS011;12772;49.794;10.024;2022-08-20T04:59:56;5.47;;;5.07;;
24635;SDS011;12772;49.794;10.024;2022-08-20T05:03:58;5.28;;;4.82;;
24635;SDS011;12772;49.794;10.024;2022-08-20T05:08:00;5.50;;;5.10;;
24635;SDS011;12772;49.794;10.024;2022-08-20T05:12:03;5.80;;;5.18;;
24635;SDS011;12772;49.794;10.024;2022-08-20T05:16:05;5.68;;;5.13;;
24635;SDS011;12772;49.794;10.024;2022-08-20T05:20:09;5.03;;;4.63;;
24635;SDS011;12772;49.794;10.024;2022-08-20T05:24:13;6.15;;;5.20;;
24635;SDS011;12772;49.794;10.024;2022-08-20T05:28:20;7.43;;;5.10;;
24635;SDS011;12772;49.794;10.024;2022-08-20T05:32:24;5.88;;;5.38;;
24635;SDS011;12772;49.794;10.024;2022-08-20T05:36:26;6.05;;;5.22;;
24635;SDS011;12772;49.794;10.024;2022-08-20T05:40:28;6.05;;;5.45;;
24635;SDS011;12772;49.794;10.024;2022-08-20T05:44:30;5.13;;;4.72;;
24635;SDS011;12772;49.794;10.024;2022-08-20T05:48:32;5.60;;;4.78;;
24635;SDS011;12772;49.794;10.024;2022-08-20T05:52:35;5.78;;;4.93;;
24635;SDS011;12772;49.794;10.024;2022-08-20T05:56:38;6.05;;;4.60;;
24635;SDS011;12772;49.794;10.024;2022-08-20T06:00:40;5.53;;;5.13;;
24635;SDS011;12772;49.794;10.024;2022-08-20T06:04:42;5.28;;;4.78;;
24635;SDS011;12772;49.794;10.024;2022-08-20T06:08:44;5.78;;;5.28;;
24635;SDS011;12772;49.794;10.024;2022-08-20T06:12:46;6.35;;;5.75;;
24635;SDS011;12772;49.794;10.024;2022-08-20T06:16:48;7.18;;;5.18;;
24635;SDS011;12772;49.794;10.024;2022-08-20T06:20:50;6.00;;;5.43;;
24635;SDS011;12772;49.794;10.024;2022-08-20T06:24:52;6.45;;;5.57;;
24635;SDS011;12772;49.794;10.024;2022-08-20T06:28:54;6.90;;;5.30;;
24635;SDS011;12772;49.794;10.024;2022-08-20T06:32:56;7.35;;;5.20;;
24635;SDS011;12772;49.794;10.024;2022-08-20T06:36:59;5.65;;;5.25;;
24635;SDS011;12772;49.794;10.024;2022-08-20T06:41:01;6.15;;;5.53;;
24635;SDS011;12772;49.794;10.024;2022-08-20T06:45:03;6.70;;;5.93;;
24635;SDS011;12772;49.794;10.024;2022-08-20T06:49:06;5.53;;;5.03;;
24635;SDS011;12772;49.794;10.024;2022-08-20T06:53:09;5.95;;;5.50;;
24635;SDS011;12772;49.794;10.024;2022-08-20T06:57:14;5.72;;;5.22;;
24635;SDS011;12772;49.794;10.024;2022-08-20T07:01:16;6.20;;;5.70;;
24635;SDS011;12772;49.794;10.024;2022-08-20T07:05:20;5.05;;;4.72;;
24635;SDS011;12772;49.794;10.024;2022-08-20T07:09:22;6.40;;;5.75;;
24635;SDS011;12772;49.794;10.024;2022-08-20T07:13:26;6.55;;;5.93;;
24635;SDS011;12772;49.794;10.024;2022-08-20T07:17:29;6.75;;;6.15;;
24635;SDS011;12772;49.794;10.024;2022-08-20T07:21:31;6.28;;;5.70;;
24635;SDS011;12772;49.794;10.024;2022-08-20T07:25:33;5.22;;;4.70;;
24635;SDS011;12772;49.794;10.024;2022-08-20T07:29:35;8.02;;;5.90;;
24635;SDS011;12772;49.794;10.024;2022-08-20T07:33:55;6.53;;;5.93;;
24635;SDS011;12772;49.794;10.024;2022-08-20T07:37:57;6.70;;;6.05;;
24635;SDS011;12772;49.794;10.024;2022-08-20T07:41:59;6.72;;;6.10;;
24635;SDS011;12772;49.794;10.024;2022-08-20T07:46:06;7.30;;;6.20;;
24635;SDS011;12772;49.794;10.024;2022-08-20T07:50:10;8.32;;;7.45;;
24635;SDS011;12772;49.794;10.024;2022-08-20T07:54:13;7.90;;;7.07;;
24635;SDS011;12772;49.794;10.024;2022-08-20T07:58:18;7.05;;;6.38;;
24635;SDS011;12772;49.794;10.024;2022-08-20T08:02:21;7.35;;;6.00;;
24635;SDS011;12772;49.794;10.024;2022-08-20T08:06:24;6.70;;;6.07;;
24635;SDS011;12772;49.794;10.024;2022-08-20T08:10:27;6.13;;;5.55;;
24635;SDS011;12772;49.794;10.024;2022-08-20T08:14:30;6.68;;;6.07;;
24635;SDS011;12772;49.794;10.024;2022-08-20T08:18:35;7.13;;;5.90;;
24635;SDS011;12772;49.794;10.024;2022-08-20T08:22:50;7.35;;;6.65;;
24635;SDS011;12772;49.794;10.024;2022-08-20T08:26:53;7.63;;;6.15;;
24635;SDS011;12772;49.794;10.024;2022-08-20T08:30:55;8.40;;;6.78;;
24635;SDS011;12772;49.794;10.024;2022-08-20T08:34:58;6.10;;;5.65;;
24635;SDS011;12772;49.794;10.024;2022-08-20T08:39:07;10.23;;;6.45;;
24635;SDS011;12772;49.794;10.024;2022-08-20T08:43:10;5.60;;;5.20;;
24635;SDS011;12772;49.794;10.024;2022-08-20T08:47:16;7.85;;;6.13;;
24635;SDS011;12772;49.794;10.024;2022-08-20T08:51:39;8.68;;;6.00;;
24635;SDS011;12772;49.794;10.024;2022-08-20T08:55:48;6.43;;;5.82;;
24635;SDS011;12772;49.794;10.024;2022-08-20T08:59:54;6.63;;;6.13;;
24635;SDS011;12772;49.794;10.024;2022-08-20T09:04:01;8.68;;;7.85;;
24635;SDS011;12772;49.794;10.024;2022-08-20T09:08:06;8.65;;;7.85;;
24635;SDS011;12772;49.794;10.024;2022-08-20T09:12:12;8.48;;;7.68;;
24635;SDS011;12772;49.794;10.024;2022-08-20T09:16:20;7.97;;;7.28;;
24635;SDS011;12772;49.794;10.024;2022-08-20T09:20:23;8.38;;;7.30;;
24635;SDS011;12772;49.794;10.024;2022-08-20T09:24:25;7.60;;;6.90;;
24635;SDS011;12772;49.794;10.024;2022-08-20T09:28:27;6.95;;;6.45;;
24635;SDS011;12772;49.794;10.024;2022-08-20T09:32:29;8.30;;;7.70;;
24635;SDS011;12772;49.794;10.024;2022-08-20T09:36:31;8.30;;;7.60;;
24635;SDS011;12772;49.794;10.024;2022-08-20T09:40:34;8.82;;;8.10;;
24635;SDS011;12772;49.794;10.024;2022-08-20T09:44:36;9.15;;;8.38;;
24635;SDS011;12772;49.794;10.024;2022-08-20T09:48:39;8.82;;;8.02;;
24635;SDS011;12772;49.794;10.024;2022-08-20T09:52:42;8.20;;;7.45;;
24635;SDS011;12772;49.794;10.024;2022-08-20T09:56:47;8.20;;;7.50;;
24635;SDS011;12772;49.794;10.024;2022-08-20T10:00:49;7.60;;;7.00;;
24635;SDS011;12772;49.794;10.024;2022-08-20T10:04:51;7.47;;;6.75;;
24635;SDS011;12772;49.794;10.024;2022-08-20T10:08:53;8.27;;;7.47;;
24635;SDS011;12772;49.794;10.024;2022-08-20T10:12:55;7.53;;;6.85;;
24635;SDS011;12772;49.794;10.024;2022-08-20T10:16:58;6.82;;;6.32;;
24635;SDS011;12772;49.794;10.024;2022-08-20T10:21:01;7.63;;;7.03;;
24635;SDS011;12772;49.794;10.024;2022-08-20T10:25:08;7.38;;;6.35;;
24635;SDS011;12772;49.794;10.024;2022-08-20T10:29:11;7.57;;;6.88;;
24635;SDS011;12772;49.794;10.024;2022-08-20T10:33:13;7.32;;;6.72;;
24635;SDS011;12772;49.794;10.024;2022-08-20T10:37:16;7.93;;;7.15;;
24635;SDS011;12772;49.794;10.024;2022-08-20T10:41:20;7.40;;;6.70;;
24635;SDS011;12772;49.794;10.024;2022-08-20T10:45:22;8.45;;;7.75;;
24635;SDS011;12772;49.794;10.024;2022-08-20T10:49:25;6.32;;;5.80;;
24635;SDS011;12772;49.794;10.024;2022-08-20T10:53:27;6.68;;;6.18;;
24635;SDS011;12772;49.794;10.024;2022-08-20T10:57:30;6.80;;;6.22;;
24635;SDS011;12772;49.794;10.024;2022-08-20T11:01:33;6.50;;;6.00;;
24635;SDS011;12772;49.794;10.024;2022-08-20T11:05:35;5.97;;;5.57;;
24635;SDS011;12772;49.794;10.024;2022-08-20T11:09:37;6.40;;;5.93;;
24635;SDS011;12772;49.794;10.024;2022-08-20T11:13:40;6.28;;;5.68;;
24635;SDS011;12772;49.794;10.024;2022-08-20T11:17:42;5.53;;;5.13;;
24635;SDS011;12772;49.794;10.024;2022-08-20T11:21:44;5.30;;;4.82;;
24635;SDS011;12772;49.794;10.024;2022-08-20T11:25:46;5.65;;;5.15;;
24635;SDS011;12772;49.794;10.024;2022-08-20T11:29:49;4.40;;;4.10;;
24635;SDS011;12772;49.794;10.024;2022-08-20T11:33:51;3.95;;;3.67;;
24635;SDS011;12772;49.794;10.024;2022-08-20T11:37:53;3.50;;;3.30;;
24635;SDS011;12772;49.794;10.024;2022-08-20T11:41:56;3.80;;;3.60;;
24635;SDS011;12772;49.794;10.024;2022-08-20T11:45:58;4.55;;;4.15;;
24635;SDS011;12772;49.794;10.024;2022-08-20T11:50:02;9.30;;;4.63;;
24635;SDS011;12772;49.794;10.024;2022-08-20T11:54:09;5.88;;;4.55;;
24635;SDS011;12772;49.794;10.024;2022-08-20T11:58:11;5.15;;;4.70;;
24635;SDS011;12772;49.794;10.024;2022-08-20T12:02:13;4.47;;;4.07;;
24635;SDS011;12772;49.794;10.024;2022-08-20T12:06:15;4.90;;;4.28;;
24635;SDS011;12772;49.794;10.024;2022-08-20T12:10:17;6.25;;;5.63;;
24635;SDS011;12772;49.794;10.024;2022-08-20T12:14:19;6.13;;;5.55;;
24635;SDS011;12772;49.794;10.024;2022-08-20T12:18:21;5.20;;;4.82;;
24635;SDS011;12772;49.794;10.024;2022-08-20T12:22:24;7.15;;;6.05;;
24635;SDS011;12772;49.794;10.024;2022-08-20T12:26:26;8.93;;;6.03;;
24635;SDS011;12772;49.794;10.024;2022-08-20T12:30:28;5.90;;;5.03;;
24635;SDS011;12772;49.794;10.024;2022-08-20T12:34:30;5.20;;;4.80;;
24635;SDS011;12772;49.794;10.024;2022-08-20T12:38:32;4.90;;;4.40;;
24635;SDS011;12772;49.794;10.024;2022-08-20T12:42:34;5.38;;;4.97;;
24635;SDS011;12772;49.794;10.024;2022-08-20T12:46:36;7.32;;;4.75;;
24635;SDS011;12772;49.794;10.024;2022-08-20T12:50:40;5.47;;;4.97;;
24635;SDS011;12772;49.794;10.024;2022-08-20T12:54:45;5.53;;;5.13;;
24635;SDS011;12772;49.794;10.024;2022-08-20T12:58:47;4.60;;;4.20;;
24635;SDS011;12772;49.794;10.024;2022-08-20T13:02:50;5.18;;;4.60;;
24635;SDS011;12772;49.794;10.024;2022-08-20T13:06:58;4.95;;;4.55;;
24635;SDS011;12772;49.794;10.024;2022-08-20T13:11:01;4.43;;;4.13;;
24635;SDS011;12772;49.794;10.024;2022-08-20T13:15:03;4.13;;;3.92;;
24635;SDS011;12772;49.794;10.024;2022-08-20T13:19:06;4.68;;;4.30;;
24635;SDS011;12772;49.794;10.024;2022-08-20T13:23:08;4.40;;;4.10;;
24635;SDS011;12772;49.794;10.024;2022-08-20T13:27:11;4.72;;;4.40;;
24635;SDS011;12772;49.794;10.024;2022-08-20T13:31:15;5.28;;;4.82;;
24635;SDS011;12772;49.794;10.024;2022-08-20T13:35:17;5.03;;;4.63;;
24635;SDS011;12772;49.794;10.024;2022-08-20T13:39:19;9.98;;;7.10;;
24635;SDS011;12772;49.794;10.024;2022-08-20T13:43:22;8.35;;;6.07;;
24635;SDS011;12772;49.794;10.024;2022-08-20T13:51:27;5.55;;;5.15;;
24635;SDS011;12772;49.794;10.024;2022-08-20T13:55:29;4.85;;;4.15;;
24635;SDS011;12772;49.794;10.024;2022-08-20T13:59:33;4.18;;;2.60;;
24635;SDS011;12772;49.794;10.024;2022-08-20T14:03:37;1.92;;;1.83;;
24635;SDS011;12772;49.794;10.024;2022-08-20T14:07:39;2.42;;;1.85;;
24635;SDS011;12772;49.794;10.024;2022-08-20T14:11:41;2.47;;;2.28;;
24635;SDS011;12772;49.794;10.024;2022-08-20T14:15:43;2.53;;;2.33;;
24635;SDS011;12772;49.794;10.024;2022-08-20T14:19:46;2.72;;;2.50;;
24635;SDS011;12772;49.794;10.024;2022-08-20T14:23:49;2.42;;;2.22;;
24635;SDS011;12772;49.794;10.024;2022-08-20T14:27:52;2.58;;;2.42;;
24635;SDS011;12772;49.794;10.024;2022-08-20T14:31:55;2.92;;;2.70;;
24635;SDS011;12772;49.794;10.024;2022-08-20T14:35:57;2.90;;;2.70;;
24635;SDS011;12772;49.794;10.024;2022-08-20T14:39:59;2.85;;;2.65;;
24635;SDS011;12772;49.794;10.024;2022-08-20T14:44:03;2.90;;;2.65;;
24635;SDS011;12772;49.794;10.024;2022-08-20T14:48:05;3.10;;;2.55;;
24635;SDS011;12772;49.794;10.024;2022-08-20T14:52:09;2.80;;;2.58;;
24635;SDS011;12772;49.794;10.024;2022-08-20T14:56:11;3.08;;;2.60;;
24635;SDS011;12772;49.794;10.024;2022-08-20T15:00:25;3.03;;;2.60;;
24635;SDS011;12772;49.794;10.024;2022-08-20T15:04:30;2.20;;;2.10;;
24635;SDS011;12772;49.794;10.024;2022-08-20T15:08:33;3.03;;;2.83;;
24635;SDS011;12772;49.794;10.024;2022-08-20T15:12:35;2.75;;;2.65;;
24635;SDS011;12772;49.794;10.024;2022-08-20T15:16:37;2.75;;;2.58;;
24635;SDS011;12772;49.794;10.024;2022-08-20T15:20:39;2.50;;;2.40;;
24635;SDS011;12772;49.794;10.024;2022-08-20T15:24:41;2.65;;;2.55;;
24635;SDS011;12772;49.794;10.024;2022-08-20T15:28:44;2.65;;;2.55;;
24635;SDS011;12772;49.794;10.024;2022-08-20T15:32:46;4.55;;;2.85;;
24635;SDS011;12772;49.794;10.024;2022-08-20T15:36:48;2.90;;;2.53;;
24635;SDS011;12772;49.794;10.024;2022-08-20T15:40:50;2.08;;;1.98;;
24635;SDS011;12772;49.794;10.024;2022-08-20T15:45:00;1.85;;;1.70;;
24635;SDS011;12772;49.794;10.024;2022-08-20T15:49:02;1.20;;;1.20;;
24635;SDS011;12772;49.794;10.024;2022-08-20T15:53:09;2.35;;;1.45;;
24635;SDS011;12772;49.794;10.024;2022-08-20T15:57:32;1.40;;;1.30;;
24635;SDS011;12772;49.794;10.024;2022-08-20T16:01:49;1.13;;;1.13;;
24635;SDS011;12772;49.794;10.024;2022-08-20T16:10:22;1.45;;;1.35;;
24635;SDS011;12772;49.794;10.024;2022-08-20T16:14:23;1.67;;;1.40;;
24635;SDS011;12772;49.794;10.024;2022-08-20T16:18:30;1.20;;;1.20;;
24635;SDS011;12772;49.794;10.024;2022-08-20T16:22:36;1.20;;;1.20;;
24635;SDS011;12772;49.794;10.024;2022-08-20T16:27:04;1.35;;;1.25;;
24635;SDS011;12772;49.794;10.024;2022-08-20T16:31:31;1.48;;;1.38;;
24635;SDS011;12772;49.794;10.024;2022-08-20T16:35:56;1.50;;;1.40;;
24635;SDS011;12772;49.794;10.024;2022-08-20T16:44:27;1.65;;;1.55;;
24635;SDS011;12772;49.794;10.024;2022-08-20T16:48:40;1.73;;;1.70;;
24635;SDS011;12772;49.794;10.024;2022-08-20T16:52:49;2.35;;;1.88;;
24635;SDS011;12772;49.794;10.024;2022-08-20T16:56:56;2.00;;;1.85;;
24635;SDS011;12772;49.794;10.024;2022-08-20T17:01:05;2.75;;;1.90;;
24635;SDS011;12772;49.794;10.024;2022-08-20T17:05:12;1.83;;;1.73;;
24635;SDS011;12772;49.794;10.024;2022-08-20T17:09:20;2.00;;;1.90;;
24635;SDS011;12772;49.794;10.024;2022-08-20T17:13:34;1.88;;;1.77;;
24635;SDS011;12772;49.794;10.024;2022-08-20T17:17:41;2.25;;;2.05;;
24635;SDS011;12772;49.794;10.024;2022-08-20T17:21:43;2.10;;;2.00;;
24635;SDS011;12772;49.794;10.024;2022-08-20T17:25:57;2.88;;;2.00;;
24635;SDS011;12772;49.794;10.024;2022-08-20T17:30:05;2.33;;;2.13;;
24635;SDS011;12772;49.794;10.024;2022-08-20T17:34:19;1.98;;;1.73;;
24635;SDS011;12772;49.794;10.024;2022-08-20T17:38:30;2.08;;;1.98;;
24635;SDS011;12772;49.794;10.024;2022-08-20T17:42:44;1.60;;;1.50;;
24635;SDS011;12772;49.794;10.024;2022-08-20T17:46:51;2.05;;;1.88;;
24635;SDS011;12772;49.794;10.024;2022-08-20T17:50:54;2.17;;;1.98;;
24635;SDS011;12772;49.794;10.024;2022-08-20T17:54:58;3.75;;;2.10;;
24635;SDS011;12772;49.794;10.024;2022-08-20T17:59:11;1.90;;;1.80;;
24635;SDS011;12772;49.794;10.024;2022-08-20T18:03:22;2.75;;;2.20;;
24635;SDS011;12772;49.794;10.024;2022-08-20T18:07:27;2.35;;;1.90;;
24635;SDS011;12772;49.794;10.024;2022-08-20T18:15:59;4.78;;;2.08;;
24635;SDS011;12772;49.794;10.024;2022-08-20T18:24:29;2.28;;;2.08;;
24635;SDS011;12772;49.794;10.024;2022-08-20T18:28:47;1.83;;;1.73;;
24635;SDS011;12772;49.794;10.024;2022-08-20T18:33:00;2.45;;;2.20;;
24635;SDS011;12772;49.794;10.024;2022-08-20T18:41:14;2.03;;;1.92;;
24635;SDS011;12772;49.794;10.024;2022-08-20T18:45:33;2.13;;;2.03;;
24635;SDS011;12772;49.794;10.024;2022-08-20T18:49:37;3.58;;;2.00;;
24635;SDS011;12772;49.794;10.024;2022-08-20T18:53:45;2.47;;;2.28;;
24635;SDS011;12772;49.794;10.024;2022-08-20T18:57:52;1.80;;;1.70;;
24635;SDS011;12772;49.794;10.024;2022-08-20T19:01:54;2.15;;;1.95;;
24635;SDS011;12772;49.794;10.024;2022-08-20T19:10:55;2.20;;;2.00;;
24635;SDS011;12772;49.794;10.024;2022-08-20T19:15:00;3.28;;;2.58;;
24635;SDS011;12772;49.794;10.024;2022-08-20T19:19:14;2.47;;;2.28;;
24635;SDS011;12772;49.794;10.024;2022-08-20T19:23:20;2.63;;;2.13;;
24635;SDS011;12772;49.794;10.024;2022-08-20T19:27:24;3.13;;;2.17;;
24635;SDS011;12772;49.794;10.024;2022-08-20T19:31:30;4.57;;;2.38;;
24635;SDS011;12772;49.794;10.024;2022-08-20T19:35:33;2.90;;;2.70;;
24635;SDS011;12772;49.794;10.024;2022-08-20T19:39:36;2.10;;;2.00;;
24635;SDS011;12772;49.794;10.024;2022-08-20T19:43:41;2.42;;;1.90;;
24635;SDS011;12772;49.794;10.024;2022-08-20T19:47:46;2.47;;;2.28;;
24635;SDS011;12772;49.794;10.024;2022-08-20T19:56:08;2.30;;;2.20;;
24635;SDS011;12772;49.794;10.024;2022-08-20T20:00:14;2.85;;;2.60;;
24635;SDS011;12772;49.794;10.024;2022-08-20T20:04:16;2.67;;;2.47;;
24635;SDS011;12772;49.794;10.024;2022-08-20T20:08:19;2.90;;;2.70;;
24635;SDS011;12772;49.794;10.024;2022-08-20T20:12:23;3.35;;;3.10;;
24635;SDS011;12772;49.794;10.024;2022-08-20T20:16:25;3.10;;;2.70;;
24635;SDS011;12772;49.794;10.024;2022-08-20T20:20:31;2.45;;;2.25;;
24635;SDS011;12772;49.794;10.024;2022-08-20T20:24:41;2.90;;;2.70;;
24635;SDS011;12772;49.794;10.024;2022-08-20T20:28:47;2.95;;;2.75;;
24635;SDS011;12772;49.794;10.024;2022-08-20T20:32:52;3.10;;;2.78;;
24635;SDS011;12772;49.794;10.024;2022-08-20T20:41:34;3.30;;;3.00;;
24635;SDS011;12772;49.794;10.024;2022-08-20T20:45:41;2.90;;;2.70;;
24635;SDS011;12772;49.794;10.024;2022-08-20T20:49:49;2.97;;;2.78;;
24635;SDS011;12772;49.794;10.024;2022-08-20T20:54:00;3.72;;;3.42;;
24635;SDS011;12772;49.794;10.024;2022-08-20T20:58:04;3.20;;;3.00;;
24635;SDS011;12772;49.794;10.024;2022-08-20T21:02:07;3.10;;;2.90;;
24635;SDS011;12772;49.794;10.024;2022-08-20T21:06:09;3.53;;;3.22;;
24635;SDS011;12772;49.794;10.024;2022-08-20T21:10:11;3.80;;;3.50;;
24635;SDS011;12772;49.794;10.024;2022-08-20T21:14:14;3.55;;;3.35;;
24635;SDS011;12772;49.794;10.024;2022-08-20T21:18:17;3.67;;;3.05;;
24635;SDS011;12772;49.794;10.024;2022-08-20T21:22:19;3.40;;;3.20;;
24635;SDS011;12772;49.794;10.024;2022-08-20T21:26:21;4.68;;;3.15;;
24635;SDS011;12772;49.794;10.024;2022-08-20T21:30:25;4.65;;;3.42;;
24635;SDS011;12772;49.794;10.024;2022-08-20T21:34:28;3.63;;;2.95;;
24635;SDS011;12772;49.794;10.024;2022-08-20T21:38:30;4.15;;;3.85;;
24635;SDS011;12772;49.794;10.024;2022-08-20T21:42:32;4.07;;;3.78;;
24635;SDS011;12772;49.794;10.024;2022-08-20T21:46:34;4.55;;;4.15;;
24635;SDS011;12772;49.794;10.024;2022-08-20T21:50:36;4.03;;;3.65;;
24635;SDS011;12772;49.794;10.024;2022-08-20T21:54:39;4.13;;;3.60;;
24635;SDS011;12772;49.794;10.024;2022-08-20T21:58:41;3.42;;;3.22;;
24635;SDS011;12772;49.794;10.024;2022-08-20T22:02:46;3.85;;;3.55;;
24635;SDS011;12772;49.794;10.024;2022-08-20T22:06:49;4.50;;;4.10;;
24635;SDS011;12772;49.794;10.024;2022-08-20T22:10:51;4.07;;;3.78;;
24635;SDS011;12772;49.794;10.024;2022-08-20T22:14:54;4.43;;;4.00;;
24635;SDS011;12772;49.794;10.024;2022-08-20T22:18:56;4.20;;;3.92;;
24635;SDS011;12772;49.794;10.024;2022-08-20T22:22:59;3.70;;;3.50;;
24635;SDS011;12772;49.794;10.024;2022-08-20T22:27:04;3.80;;;3.50;;
24635;SDS011;12772;49.794;10.024;2022-08-20T22:31:07;3.35;;;3.15;;
24635;SDS011;12772;49.794;10.024;2022-08-20T22:35:10;3.60;;;3.40;;
24635;SDS011;12772;49.794;10.024;2022-08-20T22:39:12;3.03;;;2.83;;
24635;SDS011;12772;49.794;10.024;2022-08-20T22:43:14;4.35;;;4.00;;
24635;SDS011;12772;49.794;10.024;2022-08-20T22:47:16;4.55;;;3.65;;
24635;SDS011;12772;49.794;10.024;2022-08-20T22:51:31;4.20;;;3.90;;
24635;SDS011;12772;49.794;10.024;2022-08-20T22:55:35;3.47;;;3.20;;
24635;SDS011;12772;49.794;10.024;2022-08-20T22:59:37;3.78;;;3.40;;
24635;SDS011;12772;49.794;10.024;2022-08-20T23:03:40;3.80;;;3.50;;
24635;SDS011;12772;49.794;10.024;2022-08-20T23:07:42;3.83;;;3.17;;
24635;SDS011;12772;49.794;10.024;2022-08-20T23:11:44;3.65;;;3.40;;
24635;SDS011;12772;49.794;10.024;2022-08-20T23:15:46;3.67;;;3.38;;
24635;SDS011;12772;49.794;10.024;2022-08-20T23:19:48;3.60;;;3.30;;
24635;SDS011;12772;49.794;10.024;2022-08-20T23:23:51;4.30;;;3.90;;
24635;SDS011;12772;49.794;10.024;2022-08-20T23:27:53;4.30;;;3.97;;
24635;SDS011;12772;49.794;10.024;2022-08-20T23:31:57;4.13;;;3.83;;
24635;SDS011;12772;49.794;10.024;2022-08-20T23:35:59;3.53;;;3.20;;
24635;SDS011;12772;49.794;10.024;2022-08-20T23:40:04;3.92;;;3.53;;
24635;SDS011;12772;49.794;10.024;2022-08-20T23:44:07;3.03;;;2.83;;
24635;SDS011;12772;49.794;10.024;2022-08-20T23:48:09;3.97;;;3.20;;
24635;SDS011;12772;49.794;10.024;2022-08-20T23:52:11;3.40;;;3.10;;
24635;SDS011;12772;49.794;10.024;2022-08-20T23:56:13;4.20;;;3.13;;
